• Join FlightAware (Why Join?)
  • Login
  • US Flag 
02:22PM EDT


 

Airport Tracker/Info


-or-


 

Live Flight TrackerFlight Track Log ✈ AAY894 ✈ 06-Jul-2014 ✈ KPIE - KIAG

Flight Track Log - Related Links

Times and Time Zones

All times are in EDT time to prevent confusion due to time zone crossing. See the AAY894 flight status page for this flight to view local times or setup timezone preferences in your user account.

Time Position Orientation Groundspeed Altitude Reporting Facility
EDT Latitude Longitude Course Direction KTS MPH feet Rate Location/Type
07:44AM 27.8833 -82.6833 180° South 172 198 800  Level Tampa TRACON
07:45AM 27.8500 -82.6833 180° South 188 216 1,900 1,920 Climbing Tampa TRACON
07:46AM 27.8167 -82.7167 221° Southwest 228 262 4,100 2,280 Climbing Tampa TRACON
07:47AM 27.8667 -82.7500 329° Northwest 298 343 6,700 2,340 Climbing Tampa TRACON
07:49AM 28.0067 -82.6908 20° North 294 338 10,900 2,040 Climbing Miami Center
07:50AM 28.1094 -82.6850 North 357 411 12,400 1,920 Climbing Miami Center
07:51AM 28.2214 -82.6781 North 388 447 14,900 2,220 Climbing Miami Center
07:52AM 28.3367 -82.6731 North 404 465 17,000 2,100 Climbing Miami Center
07:53AM 28.4581 -82.6653 North 428 493 19,200 1,980 Climbing Miami Center
07:54AM 28.5806 -82.6583 North 437 503 21,100 1,680 Climbing Miami Center
07:55AM 28.7036 -82.6519 North 449 517 22,700 1,560 Climbing Miami Center
07:56AM 28.8325 -82.6439 North 461 531 24,300 1,980 Climbing Miami Center
07:57AM 28.9875 -82.6369 North 462 532 26,800 1,980 Climbing Miami Center
07:58AM 29.1139 -82.6292 North 461 531 28,400 1,440 Climbing Miami Center
07:59AM 29.2397 -82.6217 North 458 527 29,800 780 Climbing Miami Center
08:00AM 29.3647 -82.6153 North 453 521 30,000  Climbing Miami Center
08:01AM 29.4900 -82.6089 North 453 521 29,900 60 Descending Miami Center
08:02AM 29.6156 -82.6025 North 454 522 30,200 480 Climbing Miami Center
08:03AM 29.7417 -82.5956 North 456 525 30,900 300 Climbing Miami Center
08:04AM 29.8675 -82.5894 North 456 525 30,900  Level Miami Center
08:05AM 30.0261 -82.5783 North 459 528 30,900  Level Jacksonville Center
08:06AM 30.1533 -82.5778 360° North 459 528 30,900  Level Jacksonville Center
08:07AM 30.2808 -82.5703 North 459 528 31,000  Climbing Jacksonville Center
08:08AM 30.4058 -82.5578 North 459 528 30,900 -60 Descending Jacksonville Center
08:09AM 30.5353 -82.5428 North 459 528 30,900  Level Jacksonville Center
08:10AM 30.6606 -82.5231 North 459 528 30,900  Level Jacksonville Center
08:11AM 30.7858 -82.5081 North 454 522 30,900 240 Level Jacksonville Center
08:12AM 30.9131 -82.4931 North 454 522 31,400 600 Climbing Jacksonville Center
08:13AM 31.0406 -82.4756 North 454 522 32,200 720 Climbing Jacksonville Center
08:14AM 31.1658 -82.4603 North 454 522 32,900 360 Climbing Jacksonville Center
08:15AM 31.2931 -82.4428 North 461 531 33,000  Climbing Jacksonville Center
08:16AM 31.4350 -82.4203 North 466 536 33,000  Level Jacksonville Center
08:17AM 31.5622 -82.4050 North 466 536 33,000  Level Jacksonville Center
08:18AM 31.6894 -82.3872 North 460 529 33,000  Level Jacksonville Center
08:20AM 31.9731 -82.3519 North 462 532 33,000  Level Atlanta Center
08:21AM 32.1000 -82.3350 North 462 532 33,000  Level Atlanta Center
08:22AM 32.2314 -82.3153 North 462 532 33,000  Level Atlanta Center
08:23AM 32.3458 -82.3006 North 462 532 33,000  Level Atlanta Center
08:24AM 32.4731 -82.2833 North 462 532 33,000  Level Atlanta Center
08:25AM 32.6042 -82.2658 North 462 532 33,000  Level Atlanta Center
08:26AM 32.7314 -82.2511 North 462 532 33,000  Level Atlanta Center
08:27AM 32.8603 -82.2286 North 462 532 33,000  Level Atlanta Center
08:28AM 32.9917 -82.2136 North 462 532 33,000  Level Atlanta Center
08:29AM 33.1186 -82.1936 North 462 532 33,000  Level Atlanta Center
08:30AM 33.2500 -82.1733 North 462 532 33,000  Level Atlanta Center
08:31AM 33.3767 -82.1458 10° North 462 532 33,000  Level Atlanta Center
08:32AM 33.5161 -82.1128 11° North 469 540 33,000  Level Atlanta Center
08:33AM 33.6450 -82.0850 10° North 469 540 33,000  Level Atlanta Center
08:34AM 33.7742 -82.0569 10° North 469 540 33,000  Level Atlanta Center
08:35AM 33.9008 -82.0292 10° North 464 534 33,000  Level Atlanta Center
08:36AM 34.0278 -82.0011 10° North 464 534 33,000  Level Atlanta Center
08:37AM 34.1547 -81.9728 10° North 464 534 33,000  Level Atlanta Center
08:38AM 34.2794 -81.9472 10° North 464 534 33,000  Level Atlanta Center
08:39AM 34.4061 -81.9164 11° North 464 534 33,000  Level Atlanta Center
08:40AM 34.5186 -81.8933 10° North 464 534 33,000  Level Atlanta Center
08:41AM 34.6556 -81.8619 11° North 464 534 33,000  Level Atlanta Center
08:42AM 34.7700 -81.8414 North 464 534 33,000  Level Atlanta Center
08:43AM 34.8947 -81.8078 12° North 464 534 33,000  Level Atlanta Center
08:44AM 35.0194 -81.7789 11° North 464 534 33,000  Level Atlanta Center
08:45AM 35.1461 -81.7553 North 464 534 33,000  Level Atlanta Center
08:46AM 35.2689 -81.7264 11° North 464 534 33,000  Level Atlanta Center
08:47AM 35.3914 -81.6975 11° North 452 520 33,000  Level Atlanta Center
08:48AM 35.5158 -81.6683 11° North 452 520 33,000  Level Atlanta Center
08:49AM 35.6406 -81.6392 11° North 452 520 33,000  Level Atlanta Center
08:50AM 35.7631 -81.6075 12° North 446 513 33,000  Level Atlanta Center
08:51AM 35.8897 -81.5781 11° North 451 519 33,000  Level Atlanta Center
08:52AM 36.0225 -81.5433 12° North 446 513 33,000  Level Atlanta Center
08:53AM 36.1450 -81.5189 North 446 513 33,000  Level Atlanta Center
08:54AM 36.2653 -81.4869 12° North 446 513 33,000  Level Atlanta Center
08:55AM 36.3878 -81.4597 10° North 446 513 33,000  Level Atlanta Center
08:56AM 36.5081 -81.4300 11° North 446 513 33,000  Level Atlanta Center
08:58AM 36.7106 -81.3822 11° North 443 510 33,000  Level Indianapolis Center
08:59AM 36.8328 -81.3531 11° North 444 511 33,000  Level Indianapolis Center
09:00AM 36.9794 -81.3178 11° North 444 511 33,000  Level Indianapolis Center
09:01AM 37.1019 -81.2875 11° North 444 511 33,000  Level Indianapolis Center
09:02AM 37.2236 -81.2589 11° North 444 511 33,000  Level Indianapolis Center
09:03AM 37.3453 -81.2289 11° North 444 511 33,000  Level Indianapolis Center
09:04AM 37.4678 -81.1978 11° North 445 512 33,000  Level Indianapolis Center
09:05AM 37.5900 -81.1672 11° North 445 512 33,000  Level Indianapolis Center
09:06AM 37.7122 -81.1367 11° North 446 513 33,000  Level Indianapolis Center
09:07AM 37.8469 -81.0986 13° North 446 513 33,000  Level Indianapolis Center
09:08AM 37.9658 -81.0653 12° North 444 511 33,000  Level Indianapolis Center
09:09AM 38.0861 -81.0317 12° North 442 509 33,000  Level Indianapolis Center
09:11AM 38.2047 -80.9989 12° North 442 509 33,000  Level Indianapolis Center
09:12AM 38.3225 -80.9656 13° North 441 507 33,000  Level Indianapolis Center
09:13AM 38.4406 -80.9314 13° North 439 505 33,000  Level Indianapolis Center
09:14AM 38.5828 -80.8897 13° North 439 505 33,000  Level Indianapolis Center
09:15AM 38.7017 -80.8544 13° North 439 505 33,000  Level Indianapolis Center
09:16AM 38.8208 -80.8197 13° North 439 505 33,000  Level Indianapolis Center
09:17AM 38.9394 -80.7836 13° North 440 506 33,000  Level Indianapolis Center
09:18AM 39.0594 -80.7483 13° North 440 506 33,000  Level Indianapolis Center
09:19AM 39.1783 -80.7119 13° North 440 506 33,000  Level Indianapolis Center
09:20AM 39.2967 -80.6761 13° North 440 506 33,000  Level Indianapolis Center
09:21AM 39.4144 -80.6300 17° North 440 506 33,000  Level Indianapolis Center
09:21AM 39.4911 -80.5983 18° North 442 509 33,000  Level Cleveland Center
09:22AM 39.6075 -80.5481 18° North 441 507 33,000  Level Cleveland Center
09:23AM 39.7244 -80.4983 18° North 442 509 33,000  Level Cleveland Center
09:24AM 39.8411 -80.4458 19° North 442 509 33,000  Level Cleveland Center
09:25AM 39.9822 -80.3856 18° North 446 513 33,000  Level Cleveland Center
09:26AM 40.0975 -80.3339 19° North 443 510 33,000  Level Cleveland Center
09:28AM 40.2150 -80.2822 19° North 441 507 33,000 -180 Level Cleveland Center
09:29AM 40.3411 -80.2269 18° North 442 509 32,700 -600 Descending Cleveland Center
09:30AM 40.4597 -80.1731 19° North 449 517 31,800 -840 Descending Cleveland Center
09:31AM 40.5822 -80.1200 18° North 460 529 31,000 -420 Descending Cleveland Center
09:32AM 40.7017 -80.0675 18° North 455 524 31,000  Level Cleveland Center
09:33AM 40.8211 -80.0131 19° North 455 524 31,000 -420 Level Cleveland Center
09:34AM 40.9450 -79.9575 19° North 455 524 30,200 -840 Descending Cleveland Center
09:35AM 41.0647 -79.9033 19° North 455 524 29,300 -1,020 Descending Cleveland Center
09:36AM 41.2061 -79.8383 19° North 456 525 28,100 -660 Descending Cleveland Center
09:37AM 41.3283 -79.7831 19° North 462 532 28,000 -60 Descending Cleveland Center
09:38AM 41.4506 -79.7253 20° North 464 534 28,000  Level Cleveland Center
09:39AM 41.5722 -79.6692 19° North 464 534 28,000 -720 Level Cleveland Center
09:40AM 41.6939 -79.6136 19° North 462 532 26,600 -1,740 Descending Cleveland Center
09:41AM 41.8103 -79.5581 20° North 448 516 24,500 -2,400 Descending Cleveland Center
09:42AM 41.9442 -79.4972 19° North 426 490 21,700 -2,580 Descending Cleveland Center
09:43AM 42.0514 -79.4478 19° North 413 475 19,300 -2,220 Descending Cleveland Center
09:44AM 42.1567 -79.3986 19° North 403 464 17,200 -2,040 Descending Cleveland Center
09:45AM 42.2572 -79.3503 20° North 386 444 15,200 -2,100 Descending Cleveland Center
09:46AM 42.3547 -79.3031 20° North 379 436 12,900 -2,040 Descending Cleveland Center
09:47AM 42.4619 -79.2531 19° North 363 418 11,100 -1,500 Descending Cleveland Center
09:48AM 42.5497 -79.2136 18° North 320 368 9,900 -1,440 Descending Cleveland Center
09:49AM 42.6328 -79.1750 19° North 306 352 8,200 -1,500 Descending Cleveland Center
09:50AM 42.7083 -79.1394 19° North 303 349 6,800 -1,320 Descending Cleveland Center
09:51AM 42.7789 -79.0903 27° Northeast 279 321 5,500 -1,380 Descending Cleveland Center
09:52AM 42.8394 -79.0147 42° Northeast 279 321 4,000 -780 Descending Cleveland Center
09:53AM 42.9003 -78.9400 42° Northeast 281 323 4,000  Level Cleveland Center
09:54AM 42.9586 -78.8689 42° Northeast 275 316 4,000 -300 Level Cleveland Center
09:55AM 43.0114 -78.8139 37° Northeast 253 291 3,400 -840 Descending Cleveland Center
09:56AM 43.0831 -78.8100 North 250 288 2,300 -900 Descending Cleveland Center
09:57AM 43.1092 -78.8553 308° West 174 200 1,600 -480 Descending Cleveland Center
09:58AM 43.1047 -78.9075 263° West 158 182 1,400 -240 Descending Cleveland Center
10:00AM 43.1000 -78.9333 316° Northwest  Level FlightAware Approximate